sensor_id;sensor_type;location;lat;lon;timestamp;P1;durP1;ratioP1;P2;durP2;ratioP2
61756;SDS011;57225;61.460;24.060;2024-02-21T00:02:13;10.20;;;5.45;;
61756;SDS011;57225;61.460;24.060;2024-02-21T00:04:57;11.90;;;5.55;;
61756;SDS011;57225;61.460;24.060;2024-02-21T00:07:42;11.00;;;5.47;;
61756;SDS011;57225;61.460;24.060;2024-02-21T00:10:26;10.32;;;5.40;;
61756;SDS011;57225;61.460;24.060;2024-02-21T00:13:10;11.82;;;5.93;;
61756;SDS011;57225;61.460;24.060;2024-02-21T00:15:55;11.40;;;5.38;;
61756;SDS011;57225;61.460;24.060;2024-02-21T00:18:39;11.70;;;5.97;;
61756;SDS011;57225;61.460;24.060;2024-02-21T00:21:24;15.05;;;6.18;;
61756;SDS011;57225;61.460;24.060;2024-02-21T00:24:08;13.05;;;6.28;;
61756;SDS011;57225;61.460;24.060;2024-02-21T00:26:53;15.15;;;6.20;;
61756;SDS011;57225;61.460;24.060;2024-02-21T00:29:38;11.52;;;5.75;;
61756;SDS011;57225;61.460;24.060;2024-02-21T00:32:22;11.70;;;5.57;;
61756;SDS011;57225;61.460;24.060;2024-02-21T00:35:07;14.13;;;6.80;;
61756;SDS011;57225;61.460;24.060;2024-02-21T00:37:52;12.90;;;6.15;;
61756;SDS011;57225;61.460;24.060;2024-02-21T00:40:36;15.00;;;6.90;;
61756;SDS011;57225;61.460;24.060;2024-02-21T00:43:21;12.73;;;6.47;;
61756;SDS011;57225;61.460;24.060;2024-02-21T00:46:07;12.25;;;6.50;;
61756;SDS011;57225;61.460;24.060;2024-02-21T00:48:52;12.23;;;6.50;;
61756;SDS011;57225;61.460;24.060;2024-02-21T00:51:36;12.50;;;6.30;;
61756;SDS011;57225;61.460;24.060;2024-02-21T00:54:21;12.10;;;6.20;;
61756;SDS011;57225;61.460;24.060;2024-02-21T00:57:06;12.30;;;6.15;;
61756;SDS011;57225;61.460;24.060;2024-02-21T00:59:50;13.50;;;6.50;;
61756;SDS011;57225;61.460;24.060;2024-02-21T01:02:35;12.88;;;7.00;;
61756;SDS011;57225;61.460;24.060;2024-02-21T01:05:19;13.98;;;6.78;;
61756;SDS011;57225;61.460;24.060;2024-02-21T01:08:04;14.45;;;7.18;;
61756;SDS011;57225;61.460;24.060;2024-02-21T01:10:49;12.73;;;7.20;;
61756;SDS011;57225;61.460;24.060;2024-02-21T01:13:33;12.65;;;6.70;;
61756;SDS011;57225;61.460;24.060;2024-02-21T01:16:18;13.98;;;6.50;;
61756;SDS011;57225;61.460;24.060;2024-02-21T01:19:02;14.70;;;7.22;;
61756;SDS011;57225;61.460;24.060;2024-02-21T01:21:47;13.40;;;7.32;;
61756;SDS011;57225;61.460;24.060;2024-02-21T01:27:50;13.60;;;6.45;;
61756;SDS011;57225;61.460;24.060;2024-02-21T01:30:35;14.82;;;6.82;;
61756;SDS011;57225;61.460;24.060;2024-02-21T01:33:20;14.00;;;7.30;;
61756;SDS011;57225;61.460;24.060;2024-02-21T01:36:05;15.75;;;7.38;;
61756;SDS011;57225;61.460;24.060;2024-02-21T01:38:52;13.18;;;7.20;;
61756;SDS011;57225;61.460;24.060;2024-02-21T01:41:37;15.75;;;7.05;;
61756;SDS011;57225;61.460;24.060;2024-02-21T01:44:21;12.60;;;7.00;;
61756;SDS011;57225;61.460;24.060;2024-02-21T01:47:06;15.38;;;6.43;;
61756;SDS011;57225;61.460;24.060;2024-02-21T01:49:51;11.80;;;6.57;;
61756;SDS011;57225;61.460;24.060;2024-02-21T01:52:36;11.55;;;6.25;;
61756;SDS011;57225;61.460;24.060;2024-02-21T01:55:21;17.90;;;6.78;;
61756;SDS011;57225;61.460;24.060;2024-02-21T01:58:06;10.57;;;5.75;;
61756;SDS011;57225;61.460;24.060;2024-02-21T02:22:14;14.13;;;6.32;;
61756;SDS011;57225;61.460;24.060;2024-02-21T02:25:04;16.27;;;6.60;;
61756;SDS011;57225;61.460;24.060;2024-02-21T02:27:49;11.98;;;6.03;;
61756;SDS011;57225;61.460;24.060;2024-02-21T02:30:37;14.20;;;6.07;;
61756;SDS011;57225;61.460;24.060;2024-02-21T02:33:21;12.02;;;6.30;;
61756;SDS011;57225;61.460;24.060;2024-02-21T02:36:05;10.65;;;5.93;;
61756;SDS011;57225;61.460;24.060;2024-02-21T02:38:50;10.63;;;5.72;;
61756;SDS011;57225;61.460;24.060;2024-02-21T02:41:35;11.55;;;5.82;;
61756;SDS011;57225;61.460;24.060;2024-02-21T02:44:20;11.82;;;5.88;;
61756;SDS011;57225;61.460;24.060;2024-02-21T02:47:04;11.77;;;5.82;;
61756;SDS011;57225;61.460;24.060;2024-02-21T02:49:49;11.13;;;5.57;;
61756;SDS011;57225;61.460;24.060;2024-02-21T02:52:34;14.77;;;6.32;;
61756;SDS011;57225;61.460;24.060;2024-02-21T02:55:19;8.90;;;5.00;;
61756;SDS011;57225;61.460;24.060;2024-02-21T02:58:04;10.10;;;5.25;;
61756;SDS011;57225;61.460;24.060;2024-02-21T03:00:48;16.98;;;5.75;;
61756;SDS011;57225;61.460;24.060;2024-02-21T03:03:32;14.20;;;5.93;;
61756;SDS011;57225;61.460;24.060;2024-02-21T03:06:17;12.27;;;6.03;;
61756;SDS011;57225;61.460;24.060;2024-02-21T03:09:01;11.95;;;5.57;;
61756;SDS011;57225;61.460;24.060;2024-02-21T03:11:52;10.63;;;5.35;;
61756;SDS011;57225;61.460;24.060;2024-02-21T03:14:40;18.23;;;5.75;;
61756;SDS011;57225;61.460;24.060;2024-02-21T03:17:25;13.25;;;5.25;;
61756;SDS011;57225;61.460;24.060;2024-02-21T03:20:12;12.88;;;5.78;;
61756;SDS011;57225;61.460;24.060;2024-02-21T03:22:57;12.32;;;6.05;;
61756;SDS011;57225;61.460;24.060;2024-02-21T03:25:41;10.68;;;5.88;;
61756;SDS011;57225;61.460;24.060;2024-02-21T03:28:26;12.90;;;5.85;;
61756;SDS011;57225;61.460;24.060;2024-02-21T03:31:13;15.05;;;6.47;;
61756;SDS011;57225;61.460;24.060;2024-02-21T03:33:57;11.50;;;5.85;;
61756;SDS011;57225;61.460;24.060;2024-02-21T03:36:42;15.63;;;5.53;;
61756;SDS011;57225;61.460;24.060;2024-02-21T03:39:26;15.80;;;7.28;;
61756;SDS011;57225;61.460;24.060;2024-02-21T03:42:11;12.07;;;6.13;;
61756;SDS011;57225;61.460;24.060;2024-02-21T03:44:55;14.50;;;6.40;;
61756;SDS011;57225;61.460;24.060;2024-02-21T03:47:40;16.15;;;5.60;;
61756;SDS011;57225;61.460;24.060;2024-02-21T03:50:24;11.20;;;5.85;;
61756;SDS011;57225;61.460;24.060;2024-02-21T03:53:10;13.52;;;6.00;;
61756;SDS011;57225;61.460;24.060;2024-02-21T03:55:56;13.75;;;6.25;;
61756;SDS011;57225;61.460;24.060;2024-02-21T03:58:43;14.15;;;6.65;;
61756;SDS011;57225;61.460;24.060;2024-02-21T04:01:28;14.90;;;6.13;;
61756;SDS011;57225;61.460;24.060;2024-02-21T04:04:12;13.75;;;6.25;;
61756;SDS011;57225;61.460;24.060;2024-02-21T04:06:57;12.93;;;5.90;;
61756;SDS011;57225;61.460;24.060;2024-02-21T04:09:42;12.65;;;5.72;;
61756;SDS011;57225;61.460;24.060;2024-02-21T04:12:26;12.52;;;6.05;;
61756;SDS011;57225;61.460;24.060;2024-02-21T04:15:11;13.15;;;5.65;;
61756;SDS011;57225;61.460;24.060;2024-02-21T04:17:55;13.48;;;6.20;;
61756;SDS011;57225;61.460;24.060;2024-02-21T04:20:39;14.23;;;6.45;;
61756;SDS011;57225;61.460;24.060;2024-02-21T04:23:24;14.07;;;5.80;;
61756;SDS011;57225;61.460;24.060;2024-02-21T04:26:08;10.93;;;5.40;;
61756;SDS011;57225;61.460;24.060;2024-02-21T04:28:53;16.08;;;6.38;;
61756;SDS011;57225;61.460;24.060;2024-02-21T04:31:37;13.88;;;6.20;;
61756;SDS011;57225;61.460;24.060;2024-02-21T04:34:22;12.05;;;6.13;;
61756;SDS011;57225;61.460;24.060;2024-02-21T04:37:06;12.85;;;5.82;;
61756;SDS011;57225;61.460;24.060;2024-02-21T04:39:51;12.98;;;5.72;;
61756;SDS011;57225;61.460;24.060;2024-02-21T04:42:35;15.70;;;6.00;;
61756;SDS011;57225;61.460;24.060;2024-02-21T04:45:19;14.05;;;5.95;;
61756;SDS011;57225;61.460;24.060;2024-02-21T04:48:04;15.57;;;6.05;;
61756;SDS011;57225;61.460;24.060;2024-02-21T04:50:48;11.50;;;5.70;;
61756;SDS011;57225;61.460;24.060;2024-02-21T04:53:33;10.90;;;5.80;;
61756;SDS011;57225;61.460;24.060;2024-02-21T04:56:17;15.10;;;6.30;;
61756;SDS011;57225;61.460;24.060;2024-02-21T04:59:02;15.00;;;6.65;;
61756;SDS011;57225;61.460;24.060;2024-02-21T05:01:46;13.55;;;5.90;;
61756;SDS011;57225;61.460;24.060;2024-02-21T05:04:31;14.50;;;6.55;;
61756;SDS011;57225;61.460;24.060;2024-02-21T05:07:15;13.93;;;6.82;;
61756;SDS011;57225;61.460;24.060;2024-02-21T05:10:00;12.52;;;6.00;;
61756;SDS011;57225;61.460;24.060;2024-02-21T05:12:44;13.52;;;6.22;;
61756;SDS011;57225;61.460;24.060;2024-02-21T05:15:30;17.20;;;6.18;;
61756;SDS011;57225;61.460;24.060;2024-02-21T05:18:15;17.48;;;7.05;;
61756;SDS011;57225;61.460;24.060;2024-02-21T05:21:00;19.10;;;6.40;;
61756;SDS011;57225;61.460;24.060;2024-02-21T05:23:45;15.43;;;6.80;;
61756;SDS011;57225;61.460;24.060;2024-02-21T05:26:30;13.60;;;5.93;;
61756;SDS011;57225;61.460;24.060;2024-02-21T05:29:14;13.93;;;6.78;;
61756;SDS011;57225;61.460;24.060;2024-02-21T05:31:59;12.07;;;5.95;;
61756;SDS011;57225;61.460;24.060;2024-02-21T05:34:43;13.90;;;6.25;;
61756;SDS011;57225;61.460;24.060;2024-02-21T05:37:28;11.13;;;5.70;;
61756;SDS011;57225;61.460;24.060;2024-02-21T05:40:13;12.85;;;5.55;;
61756;SDS011;57225;61.460;24.060;2024-02-21T05:42:57;15.73;;;5.65;;
61756;SDS011;57225;61.460;24.060;2024-02-21T05:45:42;15.95;;;6.60;;
61756;SDS011;57225;61.460;24.060;2024-02-21T05:48:27;18.90;;;5.82;;
61756;SDS011;57225;61.460;24.060;2024-02-21T05:51:11;14.63;;;5.97;;
61756;SDS011;57225;61.460;24.060;2024-02-21T05:53:55;11.90;;;5.55;;
61756;SDS011;57225;61.460;24.060;2024-02-21T05:56:43;11.75;;;5.32;;
61756;SDS011;57225;61.460;24.060;2024-02-21T05:59:28;13.32;;;5.60;;
61756;SDS011;57225;61.460;24.060;2024-02-21T06:02:14;16.73;;;5.85;;
61756;SDS011;57225;61.460;24.060;2024-02-21T06:04:58;12.55;;;5.70;;
61756;SDS011;57225;61.460;24.060;2024-02-21T06:07:43;10.13;;;5.05;;
61756;SDS011;57225;61.460;24.060;2024-02-21T06:10:27;12.25;;;5.50;;
61756;SDS011;57225;61.460;24.060;2024-02-21T06:13:12;10.43;;;5.40;;
61756;SDS011;57225;61.460;24.060;2024-02-21T06:15:56;12.02;;;5.22;;
61756;SDS011;57225;61.460;24.060;2024-02-21T06:18:41;10.05;;;5.10;;
61756;SDS011;57225;61.460;24.060;2024-02-21T06:21:28;14.60;;;5.30;;
61756;SDS011;57225;61.460;24.060;2024-02-21T06:24:13;10.57;;;5.25;;
61756;SDS011;57225;61.460;24.060;2024-02-21T06:26:58;10.38;;;5.13;;
61756;SDS011;57225;61.460;24.060;2024-02-21T06:29:42;9.73;;;5.00;;
61756;SDS011;57225;61.460;24.060;2024-02-21T06:32:27;12.65;;;5.20;;
61756;SDS011;57225;61.460;24.060;2024-02-21T06:35:11;10.23;;;5.03;;
61756;SDS011;57225;61.460;24.060;2024-02-21T06:37:56;10.80;;;5.13;;
61756;SDS011;57225;61.460;24.060;2024-02-21T06:40:40;10.23;;;5.18;;
61756;SDS011;57225;61.460;24.060;2024-02-21T06:43:25;9.32;;;4.30;;
61756;SDS011;57225;61.460;24.060;2024-02-21T06:46:09;13.68;;;5.40;;
61756;SDS011;57225;61.460;24.060;2024-02-21T06:48:54;8.15;;;4.60;;
61756;SDS011;57225;61.460;24.060;2024-02-21T06:51:42;11.77;;;4.70;;
61756;SDS011;57225;61.460;24.060;2024-02-21T06:54:27;9.93;;;4.40;;
61756;SDS011;57225;61.460;24.060;2024-02-21T06:57:11;10.70;;;4.93;;
61756;SDS011;57225;61.460;24.060;2024-02-21T06:59:56;11.73;;;5.35;;
61756;SDS011;57225;61.460;24.060;2024-02-21T07:02:40;10.40;;;4.70;;
61756;SDS011;57225;61.460;24.060;2024-02-21T07:05:24;10.02;;;4.45;;
61756;SDS011;57225;61.460;24.060;2024-02-21T07:08:09;10.85;;;4.82;;
61756;SDS011;57225;61.460;24.060;2024-02-21T07:10:53;9.18;;;4.65;;
61756;SDS011;57225;61.460;24.060;2024-02-21T07:13:38;11.98;;;5.63;;
61756;SDS011;57225;61.460;24.060;2024-02-21T07:16:23;10.73;;;4.82;;
61756;SDS011;57225;61.460;24.060;2024-02-21T07:19:07;8.88;;;4.88;;
61756;SDS011;57225;61.460;24.060;2024-02-21T07:21:52;10.18;;;4.70;;
61756;SDS011;57225;61.460;24.060;2024-02-21T07:24:39;11.52;;;4.68;;
61756;SDS011;57225;61.460;24.060;2024-02-21T07:27:24;7.95;;;4.38;;
61756;SDS011;57225;61.460;24.060;2024-02-21T07:30:11;9.50;;;5.05;;
61756;SDS011;57225;61.460;24.060;2024-02-21T07:32:56;11.30;;;4.85;;
61756;SDS011;57225;61.460;24.060;2024-02-21T07:35:41;12.90;;;5.20;;
61756;SDS011;57225;61.460;24.060;2024-02-21T07:38:28;8.98;;;4.70;;
61756;SDS011;57225;61.460;24.060;2024-02-21T07:41:13;13.65;;;5.70;;
61756;SDS011;57225;61.460;24.060;2024-02-21T07:43:57;10.68;;;5.18;;
61756;SDS011;57225;61.460;24.060;2024-02-21T07:46:42;10.82;;;5.60;;
61756;SDS011;57225;61.460;24.060;2024-02-21T07:49:26;11.98;;;5.40;;
61756;SDS011;57225;61.460;24.060;2024-02-21T07:52:11;9.43;;;4.78;;
61756;SDS011;57225;61.460;24.060;2024-02-21T07:54:55;12.20;;;5.10;;
61756;SDS011;57225;61.460;24.060;2024-02-21T07:57:40;11.00;;;4.75;;
61756;SDS011;57225;61.460;24.060;2024-02-21T08:00:25;11.35;;;5.53;;
61756;SDS011;57225;61.460;24.060;2024-02-21T08:03:09;9.07;;;4.40;;
61756;SDS011;57225;61.460;24.060;2024-02-21T08:05:54;8.93;;;4.57;;
61756;SDS011;57225;61.460;24.060;2024-02-21T08:08:38;8.02;;;4.20;;
61756;SDS011;57225;61.460;24.060;2024-02-21T08:11:23;10.20;;;4.53;;
61756;SDS011;57225;61.460;24.060;2024-02-21T08:14:07;6.85;;;3.80;;
61756;SDS011;57225;61.460;24.060;2024-02-21T08:16:52;7.63;;;4.00;;
61756;SDS011;57225;61.460;24.060;2024-02-21T08:19:38;9.57;;;4.03;;
61756;SDS011;57225;61.460;24.060;2024-02-21T08:22:22;6.65;;;3.85;;
61756;SDS011;57225;61.460;24.060;2024-02-21T08:25:07;6.90;;;4.13;;
61756;SDS011;57225;61.460;24.060;2024-02-21T08:27:51;11.52;;;4.43;;
61756;SDS011;57225;61.460;24.060;2024-02-21T08:30:39;7.33;;;4.20;;
61756;SDS011;57225;61.460;24.060;2024-02-21T08:33:24;5.97;;;3.58;;
61756;SDS011;57225;61.460;24.060;2024-02-21T08:36:09;7.78;;;3.58;;
61756;SDS011;57225;61.460;24.060;2024-02-21T08:38:53;8.45;;;4.00;;
61756;SDS011;57225;61.460;24.060;2024-02-21T08:41:37;6.93;;;3.88;;
61756;SDS011;57225;61.460;24.060;2024-02-21T08:44:22;5.88;;;3.40;;
61756;SDS011;57225;61.460;24.060;2024-02-21T08:47:11;6.05;;;3.47;;
61756;SDS011;57225;61.460;24.060;2024-02-21T08:49:55;9.32;;;4.00;;
61756;SDS011;57225;61.460;24.060;2024-02-21T08:52:40;6.20;;;3.13;;
61756;SDS011;57225;61.460;24.060;2024-02-21T08:55:24;7.22;;;3.58;;
61756;SDS011;57225;61.460;24.060;2024-02-21T08:58:09;7.00;;;3.28;;
61756;SDS011;57225;61.460;24.060;2024-02-21T09:00:54;7.55;;;3.30;;
61756;SDS011;57225;61.460;24.060;2024-02-21T09:03:38;5.47;;;3.28;;
61756;SDS011;57225;61.460;24.060;2024-02-21T09:06:23;7.10;;;3.55;;
61756;SDS011;57225;61.460;24.060;2024-02-21T09:09:10;9.02;;;2.90;;
61756;SDS011;57225;61.460;24.060;2024-02-21T09:11:55;4.43;;;2.83;;
61756;SDS011;57225;61.460;24.060;2024-02-21T09:14:39;6.20;;;2.55;;
61756;SDS011;57225;61.460;24.060;2024-02-21T09:17:24;7.15;;;2.95;;
61756;SDS011;57225;61.460;24.060;2024-02-21T09:20:09;7.32;;;2.88;;
61756;SDS011;57225;61.460;24.060;2024-02-21T09:22:56;8.27;;;2.83;;
61756;SDS011;57225;61.460;24.060;2024-02-21T09:25:41;5.72;;;3.08;;
61756;SDS011;57225;61.460;24.060;2024-02-21T09:28:25;8.70;;;3.08;;
61756;SDS011;57225;61.460;24.060;2024-02-21T09:31:10;6.63;;;2.92;;
61756;SDS011;57225;61.460;24.060;2024-02-21T09:33:54;6.32;;;2.80;;
61756;SDS011;57225;61.460;24.060;2024-02-21T09:36:39;7.07;;;3.13;;
61756;SDS011;57225;61.460;24.060;2024-02-21T09:39:24;5.30;;;2.92;;
61756;SDS011;57225;61.460;24.060;2024-02-21T09:42:09;5.97;;;2.78;;
61756;SDS011;57225;61.460;24.060;2024-02-21T09:44:56;4.28;;;2.47;;
61756;SDS011;57225;61.460;24.060;2024-02-21T09:50:48;6.78;;;2.65;;
61756;SDS011;57225;61.460;24.060;2024-02-21T09:53:34;6.20;;;2.92;;
61756;SDS011;57225;61.460;24.060;2024-02-21T09:56:22;4.07;;;2.05;;
61756;SDS011;57225;61.460;24.060;2024-02-21T09:59:07;4.32;;;2.40;;
61756;SDS011;57225;61.460;24.060;2024-02-21T10:01:51;4.85;;;2.25;;
61756;SDS011;57225;61.460;24.060;2024-02-21T10:04:36;5.43;;;2.40;;
61756;SDS011;57225;61.460;24.060;2024-02-21T10:07:20;4.20;;;2.17;;
61756;SDS011;57225;61.460;24.060;2024-02-21T10:10:08;3.45;;;2.00;;
61756;SDS011;57225;61.460;24.060;2024-02-21T10:12:52;4.00;;;1.80;;
61756;SDS011;57225;61.460;24.060;2024-02-21T10:15:41;4.15;;;1.95;;
61756;SDS011;57225;61.460;24.060;2024-02-21T10:18:26;3.08;;;1.48;;
61756;SDS011;57225;61.460;24.060;2024-02-21T10:21:10;2.80;;;1.55;;
61756;SDS011;57225;61.460;24.060;2024-02-21T10:23:55;3.28;;;1.70;;
61756;SDS011;57225;61.460;24.060;2024-02-21T10:26:39;2.45;;;1.30;;
61756;SDS011;57225;61.460;24.060;2024-02-21T10:29:24;1.67;;;1.23;;
61756;SDS011;57225;61.460;24.060;2024-02-21T10:32:12;3.50;;;1.33;;
61756;SDS011;57225;61.460;24.060;2024-02-21T10:35:01;2.22;;;1.45;;
61756;SDS011;57225;61.460;24.060;2024-02-21T10:37:48;2.63;;;1.30;;
61756;SDS011;57225;61.460;24.060;2024-02-21T10:40:34;3.15;;;1.60;;
61756;SDS011;57225;61.460;24.060;2024-02-21T10:43:18;2.00;;;1.30;;
61756;SDS011;57225;61.460;24.060;2024-02-21T10:46:03;4.03;;;1.63;;
61756;SDS011;57225;61.460;24.060;2024-02-21T10:49:10;4.50;;;1.60;;
61756;SDS011;57225;61.460;24.060;2024-02-21T10:52:03;2.25;;;1.30;;
61756;SDS011;57225;61.460;24.060;2024-02-21T10:55:03;3.05;;;1.42;;
61756;SDS011;57225;61.460;24.060;2024-02-21T10:57:49;4.70;;;1.83;;
61756;SDS011;57225;61.460;24.060;2024-02-21T11:00:34;4.82;;;1.77;;
61756;SDS011;57225;61.460;24.060;2024-02-21T11:03:20;4.15;;;2.00;;
61756;SDS011;57225;61.460;24.060;2024-02-21T11:06:05;3.10;;;1.90;;
61756;SDS011;57225;61.460;24.060;2024-02-21T11:09:04;4.13;;;2.25;;
61756;SDS011;57225;61.460;24.060;2024-02-21T11:11:53;4.63;;;2.30;;
61756;SDS011;57225;61.460;24.060;2024-02-21T11:14:37;4.07;;;2.20;;
61756;SDS011;57225;61.460;24.060;2024-02-21T11:17:23;5.78;;;2.60;;
61756;SDS011;57225;61.460;24.060;2024-02-21T11:20:13;5.22;;;2.50;;
61756;SDS011;57225;61.460;24.060;2024-02-21T11:22:58;8.57;;;2.85;;
61756;SDS011;57225;61.460;24.060;2024-02-21T11:25:42;6.05;;;2.45;;
61756;SDS011;57225;61.460;24.060;2024-02-21T11:28:26;4.95;;;2.22;;
61756;SDS011;57225;61.460;24.060;2024-02-21T11:31:11;5.07;;;2.72;;
61756;SDS011;57225;61.460;24.060;2024-02-21T11:33:59;4.82;;;2.40;;
61756;SDS011;57225;61.460;24.060;2024-02-21T11:36:51;5.47;;;2.47;;
61756;SDS011;57225;61.460;24.060;2024-02-21T11:39:36;13.02;;;2.90;;
61756;SDS011;57225;61.460;24.060;2024-02-21T11:42:22;5.38;;;2.70;;
61756;SDS011;57225;61.460;24.060;2024-02-21T11:45:09;5.25;;;2.50;;
61756;SDS011;57225;61.460;24.060;2024-02-21T11:47:53;7.38;;;2.88;;
61756;SDS011;57225;61.460;24.060;2024-02-21T11:50:38;5.68;;;2.45;;
61756;SDS011;57225;61.460;24.060;2024-02-21T11:53:23;7.50;;;3.00;;
61756;SDS011;57225;61.460;24.060;2024-02-21T11:56:08;5.45;;;2.70;;
61756;SDS011;57225;61.460;24.060;2024-02-21T11:58:53;4.47;;;2.35;;
61756;SDS011;57225;61.460;24.060;2024-02-21T12:01:37;4.70;;;2.72;;
61756;SDS011;57225;61.460;24.060;2024-02-21T12:04:22;7.07;;;2.60;;
61756;SDS011;57225;61.460;24.060;2024-02-21T12:07:10;4.10;;;2.30;;
61756;SDS011;57225;61.460;24.060;2024-02-21T12:09:54;3.70;;;2.38;;
61756;SDS011;57225;61.460;24.060;2024-02-21T12:12:42;4.73;;;2.80;;
61756;SDS011;57225;61.460;24.060;2024-02-21T12:15:27;4.00;;;2.28;;
61756;SDS011;57225;61.460;24.060;2024-02-21T12:18:11;6.57;;;2.60;;
61756;SDS011;57225;61.460;24.060;2024-02-21T12:20:56;5.15;;;2.63;;
61756;SDS011;57225;61.460;24.060;2024-02-21T12:23:42;4.47;;;2.60;;
61756;SDS011;57225;61.460;24.060;2024-02-21T12:26:26;3.50;;;2.10;;
61756;SDS011;57225;61.460;24.060;2024-02-21T12:29:11;4.57;;;1.90;;
61756;SDS011;57225;61.460;24.060;2024-02-21T12:31:55;3.42;;;2.00;;
61756;SDS011;57225;61.460;24.060;2024-02-21T12:34:39;4.40;;;1.70;;
61756;SDS011;57225;61.460;24.060;2024-02-21T12:37:25;3.67;;;1.80;;
61756;SDS011;57225;61.460;24.060;2024-02-21T12:40:09;3.42;;;1.60;;
61756;SDS011;57225;61.460;24.060;2024-02-21T12:42:57;3.30;;;1.57;;
61756;SDS011;57225;61.460;24.060;2024-02-21T12:45:43;18.38;;;2.60;;
61756;SDS011;57225;61.460;24.060;2024-02-21T12:48:27;2.28;;;1.27;;
61756;SDS011;57225;61.460;24.060;2024-02-21T12:51:12;2.13;;;1.23;;
61756;SDS011;57225;61.460;24.060;2024-02-21T12:53:57;3.03;;;1.17;;
61756;SDS011;57225;61.460;24.060;2024-02-21T12:56:42;3.78;;;1.30;;
61756;SDS011;57225;61.460;24.060;2024-02-21T12:59:26;0.93;;;0.80;;
61756;SDS011;57225;61.460;24.060;2024-02-21T13:02:11;1.65;;;1.13;;
61756;SDS011;57225;61.460;24.060;2024-02-21T13:04:56;2.67;;;1.30;;
61756;SDS011;57225;61.460;24.060;2024-02-21T13:07:40;2.45;;;0.90;;
61756;SDS011;57225;61.460;24.060;2024-02-21T13:10:26;3.28;;;0.80;;
61756;SDS011;57225;61.460;24.060;2024-02-21T13:13:10;3.05;;;1.20;;
61756;SDS011;57225;61.460;24.060;2024-02-21T13:15:56;2.60;;;0.95;;
61756;SDS011;57225;61.460;24.060;2024-02-21T13:18:41;2.30;;;1.33;;
61756;SDS011;57225;61.460;24.060;2024-02-21T13:21:26;5.05;;;1.60;;
61756;SDS011;57225;61.460;24.060;2024-02-21T13:24:10;8.15;;;1.60;;
61756;SDS011;57225;61.460;24.060;2024-02-21T13:26:55;4.20;;;1.55;;
61756;SDS011;57225;61.460;24.060;2024-02-21T13:29:39;2.28;;;1.45;;
61756;SDS011;57225;61.460;24.060;2024-02-21T13:32:24;2.80;;;1.40;;
61756;SDS011;57225;61.460;24.060;2024-02-21T13:35:09;2.10;;;1.40;;
61756;SDS011;57225;61.460;24.060;2024-02-21T13:37:55;9.32;;;1.67;;
61756;SDS011;57225;61.460;24.060;2024-02-21T13:40:40;2.65;;;1.35;;
61756;SDS011;57225;61.460;24.060;2024-02-21T13:43:26;1.73;;;1.25;;
61756;SDS011;57225;61.460;24.060;2024-02-21T13:46:10;2.58;;;1.10;;
61756;SDS011;57225;61.460;24.060;2024-02-21T13:49:01;3.10;;;1.00;;
61756;SDS011;57225;61.460;24.060;2024-02-21T13:51:50;3.15;;;1.00;;
61756;SDS011;57225;61.460;24.060;2024-02-21T13:54:35;3.70;;;1.02;;
61756;SDS011;57225;61.460;24.060;2024-02-21T13:57:19;3.63;;;1.00;;
61756;SDS011;57225;61.460;24.060;2024-02-21T14:00:04;2.92;;;1.33;;
61756;SDS011;57225;61.460;24.060;2024-02-21T14:02:49;2.63;;;1.20;;
61756;SDS011;57225;61.460;24.060;2024-02-21T14:05:33;2.70;;;1.20;;
61756;SDS011;57225;61.460;24.060;2024-02-21T14:08:18;5.43;;;0.98;;
61756;SDS011;57225;61.460;24.060;2024-02-21T14:11:03;1.27;;;1.00;;
61756;SDS011;57225;61.460;24.060;2024-02-21T14:13:48;2.47;;;1.30;;
61756;SDS011;57225;61.460;24.060;2024-02-21T14:16:32;2.75;;;1.13;;
61756;SDS011;57225;61.460;24.060;2024-02-21T14:19:16;5.20;;;1.10;;
61756;SDS011;57225;61.460;24.060;2024-02-21T14:22:02;3.55;;;1.15;;
61756;SDS011;57225;61.460;24.060;2024-02-21T14:24:46;1.63;;;0.75;;
61756;SDS011;57225;61.460;24.060;2024-02-21T14:27:42;1.48;;;0.68;;
61756;SDS011;57225;61.460;24.060;2024-02-21T14:30:27;0.73;;;0.68;;
61756;SDS011;57225;61.460;24.060;2024-02-21T14:33:11;1.73;;;0.90;;
61756;SDS011;57225;61.460;24.060;2024-02-21T14:35:56;1.33;;;0.80;;
61756;SDS011;57225;61.460;24.060;2024-02-21T14:38:40;1.65;;;0.90;;
61756;SDS011;57225;61.460;24.060;2024-02-21T14:41:27;1.45;;;0.85;;
61756;SDS011;57225;61.460;24.060;2024-02-21T14:44:12;2.90;;;0.98;;
61756;SDS011;57225;61.460;24.060;2024-02-21T14:46:58;0.93;;;0.60;;
61756;SDS011;57225;61.460;24.060;2024-02-21T14:49:42;2.78;;;0.90;;
61756;SDS011;57225;61.460;24.060;2024-02-21T14:52:27;3.63;;;0.85;;
61756;SDS011;57225;61.460;24.060;2024-02-21T14:55:13;1.10;;;0.82;;
61756;SDS011;57225;61.460;24.060;2024-02-21T14:57:58;1.42;;;0.88;;
61756;SDS011;57225;61.460;24.060;2024-02-21T15:00:42;1.20;;;0.88;;
61756;SDS011;57225;61.460;24.060;2024-02-21T15:03:26;3.38;;;1.30;;
61756;SDS011;57225;61.460;24.060;2024-02-21T15:06:11;2.05;;;1.10;;
61756;SDS011;57225;61.460;24.060;2024-02-21T15:08:55;3.03;;;1.10;;
61756;SDS011;57225;61.460;24.060;2024-02-21T15:11:41;1.63;;;0.80;;
61756;SDS011;57225;61.460;24.060;2024-02-21T15:14:27;1.70;;;0.93;;
61756;SDS011;57225;61.460;24.060;2024-02-21T15:17:11;1.30;;;0.90;;
61756;SDS011;57225;61.460;24.060;2024-02-21T15:19:56;1.23;;;0.85;;
61756;SDS011;57225;61.460;24.060;2024-02-21T15:22:42;1.08;;;0.82;;
61756;SDS011;57225;61.460;24.060;2024-02-21T15:25:27;4.75;;;1.00;;
61756;SDS011;57225;61.460;24.060;2024-02-21T15:28:13;2.20;;;0.98;;
61756;SDS011;57225;61.460;24.060;2024-02-21T15:30:58;2.17;;;1.23;;
61756;SDS011;57225;61.460;24.060;2024-02-21T15:33:42;2.53;;;1.10;;
61756;SDS011;57225;61.460;24.060;2024-02-21T15:36:27;3.92;;;1.05;;
61756;SDS011;57225;61.460;24.060;2024-02-21T15:39:12;1.73;;;1.20;;
61756;SDS011;57225;61.460;24.060;2024-02-21T15:41:57;1.70;;;1.20;;
61756;SDS011;57225;61.460;24.060;2024-02-21T15:44:41;1.73;;;1.10;;
61756;SDS011;57225;61.460;24.060;2024-02-21T15:47:28;2.25;;;1.25;;
61756;SDS011;57225;61.460;24.060;2024-02-21T15:50:13;1.88;;;1.30;;
61756;SDS011;57225;61.460;24.060;2024-02-21T15:52:57;2.13;;;1.40;;
61756;SDS011;57225;61.460;24.060;2024-02-21T15:55:42;1.50;;;1.20;;
61756;SDS011;57225;61.460;24.060;2024-02-21T15:58:26;3.90;;;1.40;;
61756;SDS011;57225;61.460;24.060;2024-02-21T16:01:11;2.78;;;1.40;;
61756;SDS011;57225;61.460;24.060;2024-02-21T16:03:55;5.53;;;1.67;;
61756;SDS011;57225;61.460;24.060;2024-02-21T16:06:42;3.22;;;1.65;;
61756;SDS011;57225;61.460;24.060;2024-02-21T16:09:28;5.80;;;1.80;;
61756;SDS011;57225;61.460;24.060;2024-02-21T16:12:13;4.13;;;1.50;;
61756;SDS011;57225;61.460;24.060;2024-02-21T16:14:58;3.22;;;1.70;;
61756;SDS011;57225;61.460;24.060;2024-02-21T16:17:42;2.10;;;1.40;;
61756;SDS011;57225;61.460;24.060;2024-02-21T16:20:27;3.15;;;1.63;;
61756;SDS011;57225;61.460;24.060;2024-02-21T16:23:11;2.10;;;1.20;;
61756;SDS011;57225;61.460;24.060;2024-02-21T16:25:57;3.22;;;1.45;;
61756;SDS011;57225;61.460;24.060;2024-02-21T16:28:41;3.45;;;1.63;;
61756;SDS011;57225;61.460;24.060;2024-02-21T16:31:26;3.17;;;1.40;;
61756;SDS011;57225;61.460;24.060;2024-02-21T16:34:13;2.20;;;1.42;;
61756;SDS011;57225;61.460;24.060;2024-02-21T16:36:57;2.65;;;1.60;;
61756;SDS011;57225;61.460;24.060;2024-02-21T16:39:42;2.65;;;1.58;;
61756;SDS011;57225;61.460;24.060;2024-02-21T16:42:26;2.28;;;1.40;;